createdAt,value
2018-12-17T00:04:09.112Z,0.46
2018-12-17T00:09:23.257Z,0.49
2018-12-17T00:14:25.306Z,0.43
2018-12-17T00:19:27.601Z,0.57
2018-12-17T00:24:29.745Z,0.56
2018-12-17T00:29:31.814Z,0.60
2018-12-17T00:34:33.990Z,0.57
2018-12-17T00:39:36.170Z,0.55
2018-12-17T00:44:38.213Z,0.53
2018-12-17T00:49:40.293Z,0.55
2018-12-17T00:54:42.345Z,0.53
2018-12-17T00:59:44.420Z,0.54
2018-12-17T01:04:46.594Z,0.62
2018-12-17T01:09:48.642Z,0.75
2018-12-17T01:14:50.726Z,0.73
2018-12-17T01:19:52.991Z,0.75
2018-12-17T01:24:55.181Z,0.77
2018-12-17T01:29:57.241Z,0.70
2018-12-17T01:34:59.508Z,0.77
2018-12-17T01:40:01.834Z,0.78
2018-12-17T01:45:04.434Z,0.84
2018-12-17T01:50:06.830Z,0.82
2018-12-17T01:55:09.005Z,0.82
2018-12-17T02:00:11.258Z,0.89
2018-12-17T02:05:13.412Z,0.81
2018-12-17T02:10:15.802Z,0.88
2018-12-17T02:15:18.979Z,0.82
2018-12-17T02:20:21.085Z,0.87
2018-12-17T02:25:23.357Z,0.87
2018-12-17T02:30:25.645Z,0.82
2018-12-17T02:35:27.917Z,0.89
2018-12-17T02:40:30.077Z,0.85
2018-12-17T02:45:32.266Z,0.93
2018-12-17T02:50:34.436Z,0.91
2018-12-17T02:55:36.698Z,0.95
2018-12-17T03:00:38.765Z,0.92
2018-12-17T03:05:41.305Z,1.01
2018-12-17T03:10:43.482Z,0.97
2018-12-17T03:15:45.767Z,0.99
2018-12-17T03:20:48.064Z,0.89
2018-12-17T03:25:51.110Z,0.96
2018-12-17T03:30:53.288Z,0.98
2018-12-17T03:35:55.956Z,0.97
2018-12-17T03:40:58.269Z,0.98
2018-12-17T03:46:00.306Z,1.00
2018-12-17T03:51:06.485Z,0.95
2018-12-17T03:56:08.758Z,0.91
2018-12-17T04:01:10.909Z,0.88
2018-12-17T04:06:13.298Z,0.86
2018-12-17T04:11:15.366Z,0.91
2018-12-17T04:16:17.555Z,0.86
2018-12-17T04:21:19.618Z,0.88
2018-12-17T04:26:21.710Z,0.78
2018-12-17T04:31:23.862Z,0.75
2018-12-17T04:36:26.253Z,0.82
2018-12-17T04:41:28.482Z,0.84
2018-12-17T04:46:30.926Z,0.87
2018-12-17T04:51:33.014Z,0.89
2018-12-17T04:56:35.183Z,0.98
2018-12-17T05:01:37.465Z,0.95
2018-12-17T05:06:39.559Z,0.98
2018-12-17T05:11:41.879Z,0.97
2018-12-17T05:16:44.034Z,0.92
2018-12-17T05:21:47.150Z,0.92
2018-12-17T05:26:49.499Z,0.93
2018-12-17T05:31:51.563Z,1.00
2018-12-17T05:36:53.735Z,1.05
2018-12-17T05:41:55.944Z,1.08
2018-12-17T05:46:57.990Z,1.22
2018-12-17T05:52:00.374Z,1.36
2018-12-17T05:57:02.534Z,1.40
2018-12-17T06:02:04.830Z,1.49
2018-12-17T06:07:07.121Z,1.39
2018-12-17T06:12:09.259Z,1.24
2018-12-17T06:17:11.485Z,1.29
2018-12-17T06:22:13.666Z,1.64
2018-12-17T06:27:15.828Z,1.85
2018-12-17T06:32:18.130Z,1.67
2018-12-17T06:37:20.285Z,1.77
2018-12-17T06:42:22.901Z,1.80
2018-12-17T06:47:24.955Z,1.84
2018-12-17T06:52:27.006Z,1.91
2018-12-17T06:57:29.310Z,1.72
2018-12-17T07:02:31.482Z,1.58
2018-12-17T07:07:33.674Z,1.24
2018-12-17T07:12:35.934Z,1.23
2018-12-17T07:17:38.141Z,1.26
2018-12-17T07:22:40.186Z,1.23
2018-12-17T07:27:42.366Z,1.25
2018-12-17T07:32:44.594Z,1.36
2018-12-17T07:37:46.762Z,1.38
2018-12-17T07:42:53.874Z,1.38
2018-12-17T07:47:55.961Z,1.42
2018-12-17T07:52:58.166Z,1.49
2018-12-17T07:58:00.234Z,1.48
2018-12-17T08:03:02.446Z,1.55
2018-12-17T08:08:04.652Z,1.66
2018-12-17T08:13:07.262Z,1.67
2018-12-17T08:18:20.082Z,1.69
2018-12-17T08:23:22.166Z,1.61
2018-12-17T08:28:24.311Z,1.57
2018-12-17T08:33:26.479Z,1.65
2018-12-17T08:38:28.546Z,1.77
2018-12-17T08:43:30.751Z,1.76
2018-12-17T08:48:33.059Z,1.88
2018-12-17T08:53:35.110Z,1.93
2018-12-17T08:58:37.202Z,2.14
2018-12-17T09:03:39.262Z,2.30
2018-12-17T09:08:41.356Z,2.47
2018-12-17T09:13:43.578Z,2.95
2018-12-17T09:18:45.858Z,3.25
2018-12-17T09:23:48.027Z,3.62
2018-12-17T09:28:50.262Z,3.90
2018-12-17T09:33:52.311Z,3.65
2018-12-17T09:38:54.581Z,3.67
2018-12-17T09:43:57.120Z,3.76
2018-12-17T09:48:59.398Z,3.40
2018-12-17T09:54:01.578Z,3.43
2018-12-17T09:59:03.872Z,3.48
2018-12-17T10:04:06.018Z,3.94
2018-12-17T10:09:08.073Z,4.16
2018-12-17T10:14:12.287Z,4.38
2018-12-17T10:19:14.337Z,3.96
2018-12-17T10:24:16.530Z,3.85
2018-12-17T10:29:18.618Z,3.89
2018-12-17T10:34:20.807Z,4.06
2018-12-17T10:39:23.201Z,4.08
2018-12-17T10:44:32.220Z,4.25
2018-12-17T10:49:34.305Z,4.52
2018-12-17T10:54:36.486Z,4.96
2018-12-17T10:59:38.554Z,5.33
2018-12-17T11:04:46.417Z,5.45
2018-12-17T11:09:48.682Z,5.46
2018-12-17T11:14:50.950Z,5.21
2018-12-17T11:19:53.100Z,4.86
2018-12-17T11:24:55.198Z,4.66
2018-12-17T11:29:57.429Z,4.56
2018-12-17T11:34:59.616Z,4.57
2018-12-17T11:40:01.917Z,4.57
2018-12-17T11:45:04.325Z,4.39
2018-12-17T11:50:07.311Z,4.24
2018-12-17T11:55:09.697Z,4.12
2018-12-17T12:00:12.109Z,4.04
2018-12-17T12:05:14.271Z,4.08
2018-12-17T12:10:16.438Z,4.13
2018-12-17T12:15:18.746Z,4.19
2018-12-17T12:20:21.001Z,4.20
2018-12-17T12:25:24.106Z,4.23
2018-12-17T12:30:26.265Z,4.25
2018-12-17T12:35:28.635Z,4.31
2018-12-17T12:40:30.911Z,4.32
2018-12-17T12:45:33.326Z,4.43
2018-12-17T12:50:35.477Z,4.50
2018-12-17T12:55:37.601Z,4.71
2018-12-17T13:00:39.695Z,5.67
2018-12-17T13:05:41.762Z,6.00
2018-12-17T13:10:43.985Z,6.05
2018-12-17T13:15:46.045Z,6.06
2018-12-17T13:20:48.093Z,6.45
2018-12-17T13:25:50.594Z,6.50
2018-12-17T13:30:52.981Z,6.03
2018-12-17T13:35:56.030Z,5.93
2018-12-17T13:40:58.254Z,5.76
2018-12-17T13:46:00.595Z,5.48
2018-12-17T13:51:08.711Z,5.42
2018-12-17T13:56:10.778Z,5.50
2018-12-17T14:01:12.842Z,5.34
2018-12-17T14:06:15.077Z,5.11
2018-12-17T14:11:17.486Z,4.95
2018-12-17T14:16:24.325Z,4.84
2018-12-17T14:21:32.237Z,4.84
2018-12-17T14:26:34.554Z,4.59
2018-12-17T14:31:36.745Z,4.45
2018-12-17T14:36:39.272Z,4.25
2018-12-17T14:41:41.394Z,4.18
2018-12-17T14:46:49.322Z,4.03
2018-12-17T14:51:51.574Z,3.78
2018-12-17T14:56:53.667Z,3.51
2018-12-17T15:01:55.758Z,3.38
2018-12-17T15:06:57.934Z,3.12
2018-12-17T15:12:00.124Z,3.12
2018-12-17T15:17:02.189Z,3.01
2018-12-17T15:22:04.374Z,3.02
2018-12-17T15:27:06.671Z,2.84
2018-12-17T15:32:08.822Z,2.64
2018-12-17T15:37:11.026Z,2.41
2018-12-17T15:42:13.207Z,2.32
2018-12-17T15:47:15.261Z,2.44
2018-12-17T15:52:17.317Z,2.65
2018-12-17T15:57:26.171Z,2.88
2018-12-17T16:02:28.251Z,3.03
2018-12-17T16:07:30.454Z,3.15
2018-12-17T16:12:32.658Z,3.23
2018-12-17T16:17:34.839Z,3.46
2018-12-17T16:22:37.742Z,3.65
2018-12-17T16:27:43.426Z,3.91
2018-12-17T16:32:45.681Z,4.05
2018-12-17T16:37:47.841Z,4.11
2018-12-17T16:42:49.977Z,4.03
2018-12-17T16:47:52.261Z,3.95
2018-12-17T16:52:54.412Z,3.92
2018-12-17T16:57:56.749Z,3.88
2018-12-17T17:03:05.921Z,3.88
2018-12-17T17:08:08.107Z,3.82
2018-12-17T17:13:10.360Z,4.03
2018-12-17T17:18:12.638Z,4.28
2018-12-17T17:23:14.679Z,4.45
2018-12-17T17:28:16.850Z,4.47
2018-12-17T17:33:18.937Z,4.47
2018-12-17T17:38:21.014Z,4.50
2018-12-17T17:43:23.177Z,4.49
2018-12-17T17:48:32.198Z,4.40
2018-12-17T17:53:34.397Z,4.38
2018-12-17T17:58:36.922Z,4.49
2018-12-17T18:03:45.901Z,4.45
2018-12-17T18:08:54.966Z,4.42
2018-12-17T18:13:57.134Z,4.57
2018-12-17T18:18:59.281Z,4.54
2018-12-17T18:24:01.546Z,4.55
2018-12-17T18:29:03.879Z,4.54
2018-12-17T18:34:06.021Z,4.45
2018-12-17T18:39:08.393Z,4.46
2018-12-17T18:44:12.569Z,4.42
2018-12-17T18:49:15.713Z,4.45
2018-12-17T18:54:17.973Z,4.50
2018-12-17T18:59:20.141Z,4.61
2018-12-17T19:04:22.173Z,4.58
2018-12-17T19:09:24.473Z,4.50
2018-12-17T19:14:26.792Z,4.39
2018-12-17T19:19:28.951Z,4.33
2018-12-17T19:24:31.114Z,4.40
2018-12-17T19:29:33.801Z,4.41
2018-12-17T19:34:35.850Z,4.26
2018-12-17T19:39:37.903Z,4.22
2018-12-17T19:44:40.015Z,4.31
2018-12-17T19:49:42.042Z,4.49
2018-12-17T19:54:44.183Z,4.47
2018-12-17T19:59:46.298Z,4.50
2018-12-17T20:04:48.438Z,4.51
2018-12-17T20:09:51.477Z,4.59
2018-12-17T20:14:53.655Z,4.59
2018-12-17T20:19:56.081Z,4.57
2018-12-17T20:25:01.174Z,4.58
2018-12-17T20:30:03.898Z,4.58
2018-12-17T20:35:07.189Z,4.57
2018-12-17T20:40:09.327Z,4.44
2018-12-17T20:45:11.538Z,4.44
2018-12-17T20:50:13.782Z,4.35
2018-12-17T20:55:15.817Z,4.37
2018-12-17T21:00:17.931Z,4.42
2018-12-17T21:05:20.189Z,4.50
2018-12-17T21:10:22.241Z,4.51
2018-12-17T21:15:24.369Z,4.53
2018-12-17T21:20:26.627Z,4.58
2018-12-17T21:25:28.691Z,4.51
2018-12-17T21:30:30.903Z,4.44
2018-12-17T21:35:32.942Z,4.40
2018-12-17T21:40:35.008Z,4.35
2018-12-17T21:45:37.190Z,4.32
2018-12-17T21:50:39.336Z,4.23
2018-12-17T21:55:41.604Z,4.21
2018-12-17T22:00:43.670Z,4.23
2018-12-17T22:05:45.766Z,4.11
2018-12-17T22:10:47.941Z,4.13
2018-12-17T22:15:50.009Z,4.34
2018-12-17T22:20:52.157Z,4.26
2018-12-17T22:25:54.294Z,4.26
2018-12-17T22:30:56.383Z,4.31
2018-12-17T22:35:58.422Z,4.43
2018-12-17T22:41:00.709Z,4.46
2018-12-17T22:46:02.997Z,4.43
2018-12-17T22:51:05.274Z,4.50
2018-12-17T22:56:07.437Z,4.38
2018-12-17T23:01:09.858Z,4.42
2018-12-17T23:06:13.813Z,4.43
2018-12-17T23:11:27.655Z,4.42
2018-12-17T23:16:41.621Z,4.39
2018-12-17T23:21:43.662Z,4.48
2018-12-17T23:26:47.723Z,4.57
2018-12-17T23:31:52.753Z,4.61
2018-12-17T23:36:55.018Z,4.64
2018-12-17T23:41:57.193Z,4.64
2018-12-17T23:46:59.490Z,4.63
2018-12-17T23:52:01.757Z,4.63
2018-12-17T23:57:04.022Z,4.68
